sensor_id;sensor_type;location;lat;lon;timestamp;P1;durP1;ratioP1;P2;durP2;ratioP2
80115;SDS011;69423;47.608;19.366;2023-04-15T12:53:16;2.63;;;2.57;;
80115;SDS011;69423;47.608;19.366;2023-04-15T12:53:47;2.43;;;2.43;;
80115;SDS011;69423;47.608;19.366;2023-04-15T12:54:19;2.17;;;2.17;;
80115;SDS011;69423;47.608;19.366;2023-04-15T12:54:51;2.43;;;2.40;;
80115;SDS011;69423;47.608;19.366;2023-04-15T12:55:22;2.97;;;2.97;;
80115;SDS011;69423;47.608;19.366;2023-04-15T12:55:53;2.73;;;2.73;;
80115;SDS011;69423;47.608;19.366;2023-04-15T12:56:24;2.93;;;2.93;;
80115;SDS011;69423;47.608;19.366;2023-04-15T12:56:56;2.80;;;2.80;;
80115;SDS011;69423;47.608;19.366;2023-04-15T12:57:28;2.47;;;2.47;;
80115;SDS011;69423;47.608;19.366;2023-04-15T12:57:58;2.77;;;2.77;;
80115;SDS011;69423;47.608;19.366;2023-04-15T12:58:29;2.63;;;2.60;;
80115;SDS011;69423;47.608;19.366;2023-04-15T12:59:00;2.67;;;2.63;;
80115;SDS011;69423;47.608;19.366;2023-04-15T12:59:32;2.53;;;2.53;;
80115;SDS011;69423;47.608;19.366;2023-04-15T13:00:03;5.93;;;5.93;;
80115;SDS011;69423;47.608;19.366;2023-04-15T13:00:37;3.93;;;3.87;;
80115;SDS011;69423;47.608;19.366;2023-04-15T13:01:08;5.73;;;5.67;;
80115;SDS011;69423;47.608;19.366;2023-04-15T13:01:40;2.60;;;2.53;;
80115;SDS011;69423;47.608;19.366;2023-04-15T13:02:11;1.97;;;1.97;;
80115;SDS011;69423;47.608;19.366;2023-04-15T13:02:43;2.07;;;2.07;;
80115;SDS011;69423;47.608;19.366;2023-04-15T13:03:14;2.00;;;2.00;;
80115;SDS011;69423;47.608;19.366;2023-04-15T13:03:45;2.10;;;2.10;;
80115;SDS011;69423;47.608;19.366;2023-04-15T13:04:17;2.23;;;2.23;;
80115;SDS011;69423;47.608;19.366;2023-04-15T13:04:49;2.10;;;2.10;;
80115;SDS011;69423;47.608;19.366;2023-04-15T13:05:20;7.70;;;7.67;;
80115;SDS011;69423;47.608;19.366;2023-04-15T13:05:51;6.40;;;6.23;;
80115;SDS011;69423;47.608;19.366;2023-04-15T13:06:22;11.97;;;11.67;;
80115;SDS011;69423;47.608;19.366;2023-04-15T13:06:54;3.87;;;3.77;;
80115;SDS011;69423;47.608;19.366;2023-04-15T13:07:25;12.23;;;11.80;;
80115;SDS011;69423;47.608;19.366;2023-04-15T13:07:56;9.53;;;9.10;;
80115;SDS011;69423;47.608;19.366;2023-04-15T13:08:27;2.10;;;2.00;;
80115;SDS011;69423;47.608;19.366;2023-04-15T13:08:58;2.73;;;2.57;;
80115;SDS011;69423;47.608;19.366;2023-04-15T13:09:30;3.50;;;3.30;;
80115;SDS011;69423;47.608;19.366;2023-04-15T13:10:01;3.23;;;3.07;;
80115;SDS011;69423;47.608;19.366;2023-04-15T13:10:33;3.33;;;3.17;;
80115;SDS011;69423;47.608;19.366;2023-04-15T13:11:08;4.30;;;4.13;;
80115;SDS011;69423;47.608;19.366;2023-04-15T13:11:39;3.03;;;2.93;;
80115;SDS011;69423;47.608;19.366;2023-04-15T13:12:10;4.60;;;4.47;;
80115;SDS011;69423;47.608;19.366;2023-04-15T13:12:43;7.17;;;7.00;;
80115;SDS011;69423;47.608;19.366;2023-04-15T13:13:16;4.60;;;4.50;;
80115;SDS011;69423;47.608;19.366;2023-04-15T13:13:47;22.93;;;22.20;;
80115;SDS011;69423;47.608;19.366;2023-04-15T13:14:18;3.63;;;3.50;;
80115;SDS011;69423;47.608;19.366;2023-04-15T13:14:48;2.23;;;2.10;;
80115;SDS011;69423;47.608;19.366;2023-04-15T13:15:19;5.03;;;4.83;;
80115;SDS011;69423;47.608;19.366;2023-04-15T13:15:52;2.77;;;2.67;;
80115;SDS011;69423;47.608;19.366;2023-04-15T13:16:23;6.80;;;6.60;;
80115;SDS011;69423;47.608;19.366;2023-04-15T13:16:54;2.60;;;2.53;;
80115;SDS011;69423;47.608;19.366;2023-04-15T13:17:25;1.80;;;1.70;;
80115;SDS011;69423;47.608;19.366;2023-04-15T13:17:55;1.57;;;1.53;;
80115;SDS011;69423;47.608;19.366;2023-04-15T13:18:26;1.60;;;1.53;;
80115;SDS011;69423;47.608;19.366;2023-04-15T13:18:58;1.50;;;1.40;;
80115;SDS011;69423;47.608;19.366;2023-04-15T13:19:29;1.77;;;1.73;;
80115;SDS011;69423;47.608;19.366;2023-04-15T13:20:00;2.00;;;2.00;;
80115;SDS011;69423;47.608;19.366;2023-04-15T13:20:31;1.73;;;1.73;;
80115;SDS011;69423;47.608;19.366;2023-04-15T13:21:02;1.70;;;1.70;;
80115;SDS011;69423;47.608;19.366;2023-04-15T13:21:33;1.67;;;1.67;;
80115;SDS011;69423;47.608;19.366;2023-04-15T13:22:04;1.47;;;1.47;;
80115;SDS011;69423;47.608;19.366;2023-04-15T13:22:37;1.37;;;1.37;;
80115;SDS011;69423;47.608;19.366;2023-04-15T13:23:08;2.10;;;2.10;;
80115;SDS011;69423;47.608;19.366;2023-04-15T13:23:40;1.90;;;1.90;;
80115;SDS011;69423;47.608;19.366;2023-04-15T13:24:11;2.10;;;2.10;;
80115;SDS011;69423;47.608;19.366;2023-04-15T13:24:42;2.30;;;2.30;;
80115;SDS011;69423;47.608;19.366;2023-04-15T13:25:13;10.90;;;10.83;;
80115;SDS011;69423;47.608;19.366;2023-04-15T13:25:44;7.47;;;7.30;;
80115;SDS011;69423;47.608;19.366;2023-04-15T13:26:15;3.23;;;3.17;;
80115;SDS011;69423;47.608;19.366;2023-04-15T13:26:47;1.87;;;1.83;;
80115;SDS011;69423;47.608;19.366;2023-04-15T13:27:18;3.27;;;3.17;;
80115;SDS011;69423;47.608;19.366;2023-04-15T13:27:49;7.73;;;7.57;;
80115;SDS011;69423;47.608;19.366;2023-04-15T13:28:20;3.63;;;3.60;;
80115;SDS011;69423;47.608;19.366;2023-04-15T13:28:51;2.13;;;2.07;;
80115;SDS011;69423;47.608;19.366;2023-04-15T13:29:22;2.07;;;2.03;;
80115;SDS011;69423;47.608;19.366;2023-04-15T13:29:53;2.00;;;1.97;;
80115;SDS011;69423;47.608;19.366;2023-04-15T13:30:25;2.13;;;2.13;;
80115;SDS011;69423;47.608;19.366;2023-04-15T13:30:56;1.87;;;1.87;;
80115;SDS011;69423;47.608;19.366;2023-04-15T13:31:27;1.40;;;1.40;;
80115;SDS011;69423;47.608;19.366;2023-04-15T13:31:58;1.27;;;1.27;;
80115;SDS011;69423;47.608;19.366;2023-04-15T13:32:30;1.30;;;1.30;;
80115;SDS011;69423;47.608;19.366;2023-04-15T13:33:01;1.67;;;1.67;;
80115;SDS011;69423;47.608;19.366;2023-04-15T13:33:32;1.80;;;1.80;;
80115;SDS011;69423;47.608;19.366;2023-04-15T13:34:03;1.77;;;1.77;;
80115;SDS011;69423;47.608;19.366;2023-04-15T13:34:34;3.80;;;3.80;;
80115;SDS011;69423;47.608;19.366;2023-04-15T13:35:05;3.83;;;3.83;;
80115;SDS011;69423;47.608;19.366;2023-04-15T13:35:36;4.23;;;4.23;;
80115;SDS011;69423;47.608;19.366;2023-04-15T13:36:07;1.83;;;1.83;;
80115;SDS011;69423;47.608;19.366;2023-04-15T13:36:38;1.70;;;1.70;;
80115;SDS011;69423;47.608;19.366;2023-04-15T13:37:09;1.73;;;1.73;;
80115;SDS011;69423;47.608;19.366;2023-04-15T13:37:40;1.47;;;1.47;;
80115;SDS011;69423;47.608;19.366;2023-04-15T13:38:11;16.53;;;16.23;;
80115;SDS011;69423;47.608;19.366;2023-04-15T13:38:42;17.47;;;16.27;;
80115;SDS011;69423;47.608;19.366;2023-04-15T13:39:13;3.93;;;3.50;;
80115;SDS011;69423;47.608;19.366;2023-04-15T13:39:44;2.40;;;2.17;;
80115;SDS011;69423;47.608;19.366;2023-04-15T13:40:14;2.27;;;2.07;;
80115;SDS011;69423;47.608;19.366;2023-04-15T13:40:45;1.93;;;1.80;;
80115;SDS011;69423;47.608;19.366;2023-04-15T13:41:16;8.27;;;7.63;;
80115;SDS011;69423;47.608;19.366;2023-04-15T13:41:47;5.00;;;4.57;;
80115;SDS011;69423;47.608;19.366;2023-04-15T13:42:18;4.83;;;4.43;;
80115;SDS011;69423;47.608;19.366;2023-04-15T13:42:49;3.20;;;2.97;;
80115;SDS011;69423;47.608;19.366;2023-04-15T13:43:22;2.17;;;2.03;;
80115;SDS011;69423;47.608;19.366;2023-04-15T13:43:53;1.73;;;1.63;;
80115;SDS011;69423;47.608;19.366;2023-04-15T13:44:24;7.57;;;7.23;;
80115;SDS011;69423;47.608;19.366;2023-04-15T13:44:55;9.27;;;8.77;;
80115;SDS011;69423;47.608;19.366;2023-04-15T13:45:25;3.70;;;3.53;;
80115;SDS011;69423;47.608;19.366;2023-04-15T13:45:56;3.90;;;3.73;;
80115;SDS011;69423;47.608;19.366;2023-04-15T13:46:27;2.27;;;2.17;;
80115;SDS011;69423;47.608;19.366;2023-04-15T13:46:58;3.00;;;2.87;;
80115;SDS011;69423;47.608;19.366;2023-04-15T13:47:29;3.80;;;3.63;;
80115;SDS011;69423;47.608;19.366;2023-04-15T13:48:00;3.77;;;3.57;;
80115;SDS011;69423;47.608;19.366;2023-04-15T13:48:31;3.13;;;2.97;;
80115;SDS011;69423;47.608;19.366;2023-04-15T13:49:02;2.20;;;2.07;;
80115;SDS011;69423;47.608;19.366;2023-04-15T13:49:32;2.53;;;2.43;;
80115;SDS011;69423;47.608;19.366;2023-04-15T13:50:04;3.17;;;3.07;;
80115;SDS011;69423;47.608;19.366;2023-04-15T13:50:35;5.57;;;5.30;;
80115;SDS011;69423;47.608;19.366;2023-04-15T13:51:06;9.20;;;8.73;;
80115;SDS011;69423;47.608;19.366;2023-04-15T13:51:37;6.83;;;6.47;;
80115;SDS011;69423;47.608;19.366;2023-04-15T13:52:10;4.93;;;4.70;;
80115;SDS011;69423;47.608;19.366;2023-04-15T13:52:41;8.53;;;8.13;;
80115;SDS011;69423;47.608;19.366;2023-04-15T13:53:12;4.17;;;4.00;;
80115;SDS011;69423;47.608;19.366;2023-04-15T13:53:43;2.37;;;2.30;;
80115;SDS011;69423;47.608;19.366;2023-04-15T13:54:14;1.70;;;1.60;;
80115;SDS011;69423;47.608;19.366;2023-04-15T13:54:45;1.57;;;1.53;;
80115;SDS011;69423;47.608;19.366;2023-04-15T13:55:17;1.77;;;1.70;;
80115;SDS011;69423;47.608;19.366;2023-04-15T13:55:48;4.97;;;4.90;;
80115;SDS011;69423;47.608;19.366;2023-04-15T13:56:19;2.13;;;2.13;;
80115;SDS011;69423;47.608;19.366;2023-04-15T13:56:50;1.87;;;1.87;;
80115;SDS011;69423;47.608;19.366;2023-04-15T13:57:21;9.30;;;9.30;;
80115;SDS011;69423;47.608;19.366;2023-04-15T13:57:52;3.10;;;3.10;;
80115;SDS011;69423;47.608;19.366;2023-04-15T13:58:23;1.77;;;1.77;;
80115;SDS011;69423;47.608;19.366;2023-04-15T13:58:54;2.03;;;2.03;;
80115;SDS011;69423;47.608;19.366;2023-04-15T13:59:28;2.23;;;2.23;;
80115;SDS011;69423;47.608;19.366;2023-04-15T13:59:59;1.83;;;1.83;;
80115;SDS011;69423;47.608;19.366;2023-04-15T14:00:30;1.93;;;1.93;;
80115;SDS011;69423;47.608;19.366;2023-04-15T14:01:01;2.63;;;2.63;;
80115;SDS011;69423;47.608;19.366;2023-04-15T14:01:33;4.53;;;4.47;;
80115;SDS011;69423;47.608;19.366;2023-04-15T14:02:05;3.13;;;3.03;;
80115;SDS011;69423;47.608;19.366;2023-04-15T14:02:36;2.10;;;2.07;;
80115;SDS011;69423;47.608;19.366;2023-04-15T14:03:07;2.07;;;2.00;;
80115;SDS011;69423;47.608;19.366;2023-04-15T14:03:38;13.23;;;12.97;;
80115;SDS011;69423;47.608;19.366;2023-04-15T14:04:08;5.97;;;5.87;;
80115;SDS011;69423;47.608;19.366;2023-04-15T14:04:39;3.17;;;3.13;;
80115;SDS011;69423;47.608;19.366;2023-04-15T14:05:10;7.63;;;7.47;;
80115;SDS011;69423;47.608;19.366;2023-04-15T14:05:41;4.23;;;4.17;;
80115;SDS011;69423;47.608;19.366;2023-04-15T14:06:12;4.50;;;4.40;;
80115;SDS011;69423;47.608;19.366;2023-04-15T14:06:43;5.17;;;5.03;;
80115;SDS011;69423;47.608;19.366;2023-04-15T14:07:14;7.93;;;7.73;;
80115;SDS011;69423;47.608;19.366;2023-04-15T14:07:45;5.50;;;5.37;;
80115;SDS011;69423;47.608;19.366;2023-04-15T14:08:16;4.43;;;4.33;;
80115;SDS011;69423;47.608;19.366;2023-04-15T14:08:47;4.67;;;4.47;;
80115;SDS011;69423;47.608;19.366;2023-04-15T14:09:18;9.33;;;8.97;;
80115;SDS011;69423;47.608;19.366;2023-04-15T14:09:51;7.83;;;7.63;;
80115;SDS011;69423;47.608;19.366;2023-04-15T14:10:22;4.77;;;4.67;;
80115;SDS011;69423;47.608;19.366;2023-04-15T14:10:54;3.73;;;3.63;;
80115;SDS011;69423;47.608;19.366;2023-04-15T14:11:25;6.80;;;6.57;;
80115;SDS011;69423;47.608;19.366;2023-04-15T14:11:57;12.57;;;11.30;;
80115;SDS011;69423;47.608;19.366;2023-04-15T14:12:29;11.10;;;9.13;;
80115;SDS011;69423;47.608;19.366;2023-04-15T14:13:00;5.73;;;4.70;;
80115;SDS011;69423;47.608;19.366;2023-04-15T14:13:31;3.87;;;3.23;;
80115;SDS011;69423;47.608;19.366;2023-04-15T14:14:02;2.83;;;2.43;;
80115;SDS011;69423;47.608;19.366;2023-04-15T14:14:32;2.90;;;2.57;;
80115;SDS011;69423;47.608;19.366;2023-04-15T14:15:03;5.60;;;4.93;;
80115;SDS011;69423;47.608;19.366;2023-04-15T14:15:35;5.27;;;4.60;;
80115;SDS011;69423;47.608;19.366;2023-04-15T14:16:05;11.67;;;9.80;;
80115;SDS011;69423;47.608;19.366;2023-04-15T14:16:36;14.77;;;11.87;;
80115;SDS011;69423;47.608;19.366;2023-04-15T14:17:07;16.27;;;13.00;;
80115;SDS011;69423;47.608;19.366;2023-04-15T14:17:38;33.13;;;25.63;;
80115;SDS011;69423;47.608;19.366;2023-04-15T14:18:11;27.30;;;20.80;;
80115;SDS011;69423;47.608;19.366;2023-04-15T14:18:43;9.87;;;7.67;;
80115;SDS011;69423;47.608;19.366;2023-04-15T14:19:14;7.57;;;6.17;;
80115;SDS011;69423;47.608;19.366;2023-04-15T14:19:45;5.10;;;4.30;;
80115;SDS011;69423;47.608;19.366;2023-04-15T14:20:16;5.43;;;4.70;;
80115;SDS011;69423;47.608;19.366;2023-04-15T14:20:47;10.33;;;8.93;;
80115;SDS011;69423;47.608;19.366;2023-04-15T14:21:18;9.40;;;8.20;;
80115;SDS011;69423;47.608;19.366;2023-04-15T14:21:48;5.90;;;5.23;;
80115;SDS011;69423;47.608;19.366;2023-04-15T14:22:19;9.23;;;8.23;;
80115;SDS011;69423;47.608;19.366;2023-04-15T14:22:50;8.87;;;8.00;;
80115;SDS011;69423;47.608;19.366;2023-04-15T14:23:21;12.00;;;11.03;;
80115;SDS011;69423;47.608;19.366;2023-04-15T14:23:53;14.17;;;13.23;;
80115;SDS011;69423;47.608;19.366;2023-04-15T14:24:24;8.83;;;8.27;;
80115;SDS011;69423;47.608;19.366;2023-04-15T14:24:54;8.90;;;8.37;;
80115;SDS011;69423;47.608;19.366;2023-04-15T14:25:25;6.93;;;6.60;;
80115;SDS011;69423;47.608;19.366;2023-04-15T14:25:56;7.80;;;7.53;;
80115;SDS011;69423;47.608;19.366;2023-04-15T14:26:27;6.57;;;6.33;;
80115;SDS011;69423;47.608;19.366;2023-04-15T14:26:58;4.10;;;4.00;;
80115;SDS011;69423;47.608;19.366;2023-04-15T14:27:29;3.20;;;3.13;;
80115;SDS011;69423;47.608;19.366;2023-04-15T14:28:00;2.90;;;2.83;;
80115;SDS011;69423;47.608;19.366;2023-04-15T14:28:32;3.77;;;3.77;;
80115;SDS011;69423;47.608;19.366;2023-04-15T14:29:03;5.63;;;5.60;;
80115;SDS011;69423;47.608;19.366;2023-04-15T14:29:34;7.13;;;7.07;;
80115;SDS011;69423;47.608;19.366;2023-04-15T14:30:05;8.40;;;8.30;;
80115;SDS011;69423;47.608;19.366;2023-04-15T14:30:37;9.63;;;9.43;;
80115;SDS011;69423;47.608;19.366;2023-04-15T14:31:07;10.70;;;10.40;;
80115;SDS011;69423;47.608;19.366;2023-04-15T14:31:38;8.90;;;8.53;;
80115;SDS011;69423;47.608;19.366;2023-04-15T14:32:09;6.13;;;5.93;;
80115;SDS011;69423;47.608;19.366;2023-04-15T14:32:40;5.13;;;4.97;;
80115;SDS011;69423;47.608;19.366;2023-04-15T14:33:11;4.10;;;3.93;;
80115;SDS011;69423;47.608;19.366;2023-04-15T14:33:42;3.47;;;3.43;;
80115;SDS011;69423;47.608;19.366;2023-04-15T14:34:12;4.03;;;3.97;;
80115;SDS011;69423;47.608;19.366;2023-04-15T14:34:43;4.00;;;3.90;;
80115;SDS011;69423;47.608;19.366;2023-04-15T14:35:14;3.83;;;3.77;;
80115;SDS011;69423;47.608;19.366;2023-04-15T14:35:45;3.53;;;3.53;;
80115;SDS011;69423;47.608;19.366;2023-04-15T14:36:16;3.37;;;3.37;;
80115;SDS011;69423;47.608;19.366;2023-04-15T14:36:47;3.70;;;3.70;;
80115;SDS011;69423;47.608;19.366;2023-04-15T14:37:18;3.40;;;3.40;;
80115;SDS011;69423;47.608;19.366;2023-04-15T14:37:49;11.03;;;10.90;;
80115;SDS011;69423;47.608;19.366;2023-04-15T14:38:20;8.03;;;7.83;;
80115;SDS011;69423;47.608;19.366;2023-04-15T14:38:52;4.93;;;4.80;;
80115;SDS011;69423;47.608;19.366;2023-04-15T14:39:22;4.70;;;4.60;;
80115;SDS011;69423;47.608;19.366;2023-04-15T14:39:53;3.63;;;3.63;;
80115;SDS011;69423;47.608;19.366;2023-04-15T14:40:24;2.80;;;2.80;;
80115;SDS011;69423;47.608;19.366;2023-04-15T14:40:55;2.97;;;2.97;;
80115;SDS011;69423;47.608;19.366;2023-04-15T14:41:26;3.10;;;3.10;;
80115;SDS011;69423;47.608;19.366;2023-04-15T14:41:57;3.13;;;3.13;;
80115;SDS011;69423;47.608;19.366;2023-04-15T14:42:28;4.30;;;4.30;;
80115;SDS011;69423;47.608;19.366;2023-04-15T14:42:59;8.20;;;8.13;;
80115;SDS011;69423;47.608;19.366;2023-04-15T14:43:30;6.90;;;6.77;;
80115;SDS011;69423;47.608;19.366;2023-04-15T14:44:01;4.13;;;4.00;;
80115;SDS011;69423;47.608;19.366;2023-04-15T14:44:32;4.10;;;4.03;;
80115;SDS011;69423;47.608;19.366;2023-04-15T14:45:02;6.73;;;6.57;;
80115;SDS011;69423;47.608;19.366;2023-04-15T14:45:33;15.50;;;14.60;;
80115;SDS011;69423;47.608;19.366;2023-04-15T14:46:05;13.80;;;12.57;;
80115;SDS011;69423;47.608;19.366;2023-04-15T14:46:37;13.70;;;12.43;;
80115;SDS011;69423;47.608;19.366;2023-04-15T14:47:10;30.87;;;27.57;;
80115;SDS011;69423;47.608;19.366;2023-04-15T14:47:41;19.73;;;17.67;;
80115;SDS011;69423;47.608;19.366;2023-04-15T14:48:12;18.03;;;16.23;;
80115;SDS011;69423;47.608;19.366;2023-04-15T14:48:43;6.37;;;5.83;;
80115;SDS011;69423;47.608;19.366;2023-04-15T14:49:14;6.47;;;6.03;;
80115;SDS011;69423;47.608;19.366;2023-04-15T14:49:45;4.13;;;3.93;;
80115;SDS011;69423;47.608;19.366;2023-04-15T14:50:15;3.67;;;3.57;;
80115;SDS011;69423;47.608;19.366;2023-04-15T14:50:46;3.70;;;3.60;;
80115;SDS011;69423;47.608;19.366;2023-04-15T14:51:17;3.67;;;3.57;;
80115;SDS011;69423;47.608;19.366;2023-04-15T14:51:49;3.80;;;3.80;;
80115;SDS011;69423;47.608;19.366;2023-04-15T14:52:20;10.53;;;10.43;;
80115;SDS011;69423;47.608;19.366;2023-04-15T14:52:50;7.10;;;6.97;;
80115;SDS011;69423;47.608;19.366;2023-04-15T14:53:21;4.50;;;4.43;;
80115;SDS011;69423;47.608;19.366;2023-04-15T14:53:52;4.00;;;3.97;;
80115;SDS011;69423;47.608;19.366;2023-04-15T14:54:23;3.63;;;3.63;;
80115;SDS011;69423;47.608;19.366;2023-04-15T14:54:54;4.13;;;4.13;;
80115;SDS011;69423;47.608;19.366;2023-04-15T14:55:25;5.70;;;5.70;;
80115;SDS011;69423;47.608;19.366;2023-04-15T14:55:55;21.23;;;20.77;;
80115;SDS011;69423;47.608;19.366;2023-04-15T14:56:27;16.77;;;16.03;;
80115;SDS011;69423;47.608;19.366;2023-04-15T14:56:57;14.73;;;14.00;;
80115;SDS011;69423;47.608;19.366;2023-04-15T14:57:28;48.30;;;43.40;;
80115;SDS011;69423;47.608;19.366;2023-04-15T14:58:00;28.90;;;24.27;;
80115;SDS011;69423;47.608;19.366;2023-04-15T14:58:31;76.53;;;65.70;;
80115;SDS011;69423;47.608;19.366;2023-04-15T14:59:02;65.50;;;53.47;;
80115;SDS011;69423;47.608;19.366;2023-04-15T14:59:33;32.53;;;26.83;;
80115;SDS011;69423;47.608;19.366;2023-04-15T15:00:04;29.50;;;25.37;;
80115;SDS011;69423;47.608;19.366;2023-04-15T15:00:37;16.80;;;14.80;;
80115;SDS011;69423;47.608;19.366;2023-04-15T15:01:11;9.83;;;9.07;;
80115;SDS011;69423;47.608;19.366;2023-04-15T15:01:42;9.77;;;9.20;;
80115;SDS011;69423;47.608;19.366;2023-04-15T15:02:13;7.40;;;7.07;;
80115;SDS011;69423;47.608;19.366;2023-04-15T15:02:44;6.00;;;5.83;;
80115;SDS011;69423;47.608;19.366;2023-04-15T15:03:16;5.60;;;5.53;;
80115;SDS011;69423;47.608;19.366;2023-04-15T15:03:48;4.83;;;4.83;;
80115;SDS011;69423;47.608;19.366;2023-04-15T15:04:19;5.00;;;5.00;;
80115;SDS011;69423;47.608;19.366;2023-04-15T15:04:50;4.87;;;4.87;;
80115;SDS011;69423;47.608;19.366;2023-04-15T15:05:21;4.73;;;4.73;;
80115;SDS011;69423;47.608;19.366;2023-04-15T15:05:52;4.83;;;4.83;;
80115;SDS011;69423;47.608;19.366;2023-04-15T15:06:23;4.80;;;4.80;;
80115;SDS011;69423;47.608;19.366;2023-04-15T15:06:54;29.83;;;29.40;;
80115;SDS011;69423;47.608;19.366;2023-04-15T15:07:25;46.70;;;41.97;;
80115;SDS011;69423;47.608;19.366;2023-04-15T15:07:56;11.77;;;10.23;;
80115;SDS011;69423;47.608;19.366;2023-04-15T15:08:27;8.47;;;7.57;;
80115;SDS011;69423;47.608;19.366;2023-04-15T15:08:58;6.67;;;6.23;;
80115;SDS011;69423;47.608;19.366;2023-04-15T15:09:30;5.80;;;5.57;;
80115;SDS011;69423;47.608;19.366;2023-04-15T15:10:01;16.27;;;15.73;;
80115;SDS011;69423;47.608;19.366;2023-04-15T15:10:32;9.37;;;8.93;;
80115;SDS011;69423;47.608;19.366;2023-04-15T15:11:03;14.70;;;13.67;;
80115;SDS011;69423;47.608;19.366;2023-04-15T15:11:34;7.47;;;6.90;;
80115;SDS011;69423;47.608;19.366;2023-04-15T15:12:05;5.57;;;5.23;;
80115;SDS011;69423;47.608;19.366;2023-04-15T15:12:36;5.53;;;5.27;;
80115;SDS011;69423;47.608;19.366;2023-04-15T15:13:08;5.87;;;5.67;;
80115;SDS011;69423;47.608;19.366;2023-04-15T15:13:40;7.30;;;7.00;;
80115;SDS011;69423;47.608;19.366;2023-04-15T15:14:10;4.90;;;4.73;;
80115;SDS011;69423;47.608;19.366;2023-04-15T15:14:41;4.57;;;4.43;;
80115;SDS011;69423;47.608;19.366;2023-04-15T15:15:12;4.40;;;4.30;;
80115;SDS011;69423;47.608;19.366;2023-04-15T15:15:43;4.03;;;4.00;;
80115;SDS011;69423;47.608;19.366;2023-04-15T15:16:14;4.40;;;4.30;;
80115;SDS011;69423;47.608;19.366;2023-04-15T15:16:45;4.60;;;4.47;;
80115;SDS011;69423;47.608;19.366;2023-04-15T15:17:16;4.87;;;4.77;;
80115;SDS011;69423;47.608;19.366;2023-04-15T15:17:47;14.63;;;14.13;;
80115;SDS011;69423;47.608;19.366;2023-04-15T15:18:18;22.33;;;21.23;;
80115;SDS011;69423;47.608;19.366;2023-04-15T15:18:49;8.93;;;8.40;;
80115;SDS011;69423;47.608;19.366;2023-04-15T15:19:20;51.40;;;47.73;;
80115;SDS011;69423;47.608;19.366;2023-04-15T15:19:51;39.50;;;35.60;;
80115;SDS011;69423;47.608;19.366;2023-04-15T15:20:23;14.07;;;12.37;;
80115;SDS011;69423;47.608;19.366;2023-04-15T15:20:54;6.37;;;5.63;;
80115;SDS011;69423;47.608;19.366;2023-04-15T15:21:25;4.43;;;3.93;;
80115;SDS011;69423;47.608;19.366;2023-04-15T15:21:56;10.63;;;9.67;;
80115;SDS011;69423;47.608;19.366;2023-04-15T15:22:27;7.43;;;6.97;;
80115;SDS011;69423;47.608;19.366;2023-04-15T15:22:58;6.17;;;5.90;;
80115;SDS011;69423;47.608;19.366;2023-04-15T15:23:29;6.43;;;6.33;;
80115;SDS011;69423;47.608;19.366;2023-04-15T15:24:01;19.00;;;18.97;;
80115;SDS011;69423;47.608;19.366;2023-04-15T15:24:32;48.50;;;44.63;;
80115;SDS011;69423;47.608;19.366;2023-04-15T15:25:03;32.00;;;28.00;;
80115;SDS011;69423;47.608;19.366;2023-04-15T15:25:34;21.50;;;19.70;;
80115;SDS011;69423;47.608;19.366;2023-04-15T15:26:05;29.83;;;28.17;;
80115;SDS011;69423;47.608;19.366;2023-04-15T15:26:36;30.67;;;28.87;;
80115;SDS011;69423;47.608;19.366;2023-04-15T15:27:07;36.50;;;34.03;;
80115;SDS011;69423;47.608;19.366;2023-04-15T15:27:38;24.23;;;22.47;;
80115;SDS011;69423;47.608;19.366;2023-04-15T15:28:09;15.77;;;14.77;;
80115;SDS011;69423;47.608;19.366;2023-04-15T15:28:40;20.13;;;18.97;;
80115;SDS011;69423;47.608;19.366;2023-04-15T15:29:11;9.57;;;9.07;;
80115;SDS011;69423;47.608;19.366;2023-04-15T15:29:42;16.50;;;15.80;;
80115;SDS011;69423;47.608;19.366;2023-04-15T15:30:13;13.07;;;12.53;;
80115;SDS011;69423;47.608;19.366;2023-04-15T15:30:44;7.67;;;7.37;;
80115;SDS011;69423;47.608;19.366;2023-04-15T15:31:15;7.17;;;6.97;;
80115;SDS011;69423;47.608;19.366;2023-04-15T15:31:46;7.50;;;7.33;;
80115;SDS011;69423;47.608;19.366;2023-04-15T15:32:17;10.87;;;10.63;;
80115;SDS011;69423;47.608;19.366;2023-04-15T15:32:48;13.97;;;13.67;;
80115;SDS011;69423;47.608;19.366;2023-04-15T15:33:18;13.30;;;13.10;;
80115;SDS011;69423;47.608;19.366;2023-04-15T15:33:50;13.20;;;12.93;;
80115;SDS011;69423;47.608;19.366;2023-04-15T15:34:22;10.60;;;10.33;;
80115;SDS011;69423;47.608;19.366;2023-04-15T15:34:53;12.37;;;12.07;;
80115;SDS011;69423;47.608;19.366;2023-04-15T15:35:24;13.50;;;13.23;;
80115;SDS011;69423;47.608;19.366;2023-04-15T15:35:55;10.20;;;10.17;;
80115;SDS011;69423;47.608;19.366;2023-04-15T15:36:28;5.83;;;5.83;;
80115;SDS011;69423;47.608;19.366;2023-04-15T15:37:00;4.73;;;4.73;;
80115;SDS011;69423;47.608;19.366;2023-04-15T15:37:31;4.83;;;4.80;;
80115;SDS011;69423;47.608;19.366;2023-04-15T15:38:02;5.33;;;5.20;;
80115;SDS011;69423;47.608;19.366;2023-04-15T15:38:33;10.90;;;10.53;;
80115;SDS011;69423;47.608;19.366;2023-04-15T15:39:04;7.47;;;7.20;;
80115;SDS011;69423;47.608;19.366;2023-04-15T15:39:34;6.30;;;6.10;;
80115;SDS011;69423;47.608;19.366;2023-04-15T15:40:06;8.00;;;7.70;;
80115;SDS011;69423;47.608;19.366;2023-04-15T15:40:37;6.90;;;6.67;;
80115;SDS011;69423;47.608;19.366;2023-04-15T15:41:08;6.23;;;6.10;;
80115;SDS011;69423;47.608;19.366;2023-04-15T15:41:39;6.00;;;5.97;;
80115;SDS011;69423;47.608;19.366;2023-04-15T15:42:10;5.53;;;5.53;;
80115;SDS011;69423;47.608;19.366;2023-04-15T15:42:41;4.37;;;4.37;;
80115;SDS011;69423;47.608;19.366;2023-04-15T15:43:12;3.60;;;3.57;;
80115;SDS011;69423;47.608;19.366;2023-04-15T15:43:43;3.67;;;3.67;;
80115;SDS011;69423;47.608;19.366;2023-04-15T15:44:14;3.60;;;3.60;;
80115;SDS011;69423;47.608;19.366;2023-04-15T15:44:45;3.53;;;3.53;;
80115;SDS011;69423;47.608;19.366;2023-04-15T15:45:16;3.87;;;3.87;;
80115;SDS011;69423;47.608;19.366;2023-04-15T15:45:47;3.20;;;3.20;;
80115;SDS011;69423;47.608;19.366;2023-04-15T15:46:21;2.97;;;2.97;;
80115;SDS011;69423;47.608;19.366;2023-04-15T15:46:53;2.93;;;2.93;;
80115;SDS011;69423;47.608;19.366;2023-04-15T15:47:24;2.97;;;2.97;;
80115;SDS011;69423;47.608;19.366;2023-04-15T15:47:58;3.63;;;3.63;;
80115;SDS011;69423;47.608;19.366;2023-04-15T15:48:29;2.97;;;2.97;;
80115;SDS011;69423;47.608;19.366;2023-04-15T15:49:01;2.17;;;2.17;;
80115;SDS011;69423;47.608;19.366;2023-04-15T15:49:33;2.23;;;2.23;;
80115;SDS011;69423;47.608;19.366;2023-04-15T15:50:04;3.33;;;3.33;;
80115;SDS011;69423;47.608;19.366;2023-04-15T15:50:35;2.43;;;2.43;;
80115;SDS011;69423;47.608;19.366;2023-04-15T15:51:06;1.93;;;1.93;;
80115;SDS011;69423;47.608;19.366;2023-04-15T15:51:37;2.77;;;2.77;;
80115;SDS011;69423;47.608;19.366;2023-04-15T15:52:08;2.57;;;2.47;;
80115;SDS011;69423;47.608;19.366;2023-04-15T15:52:39;2.60;;;2.50;;
80115;SDS011;69423;47.608;19.366;2023-04-15T15:53:10;3.33;;;3.27;;
80115;SDS011;69423;47.608;19.366;2023-04-15T15:53:41;25.20;;;24.43;;
80115;SDS011;69423;47.608;19.366;2023-04-15T15:54:14;6.30;;;6.10;;
80115;SDS011;69423;47.608;19.366;2023-04-15T15:54:44;6.67;;;6.43;;
80115;SDS011;69423;47.608;19.366;2023-04-15T15:55:15;22.93;;;22.17;;
80115;SDS011;69423;47.608;19.366;2023-04-15T15:55:46;82.47;;;78.47;;
80115;SDS011;69423;47.608;19.366;2023-04-15T15:56:17;132.43;;;122.83;;
80115;SDS011;69423;47.608;19.366;2023-04-15T15:56:49;30.17;;;27.23;;